sensor_id;sensor_type;location;lat;lon;timestamp;P1;durP1;ratioP1;P2;durP2;ratioP2
62463;SDS011;48512;48.552;9.380;2023-03-21T00:01:19;6.82;;;2.92;;
62463;SDS011;48512;48.552;9.380;2023-03-21T00:03:45;7.68;;;3.47;;
62463;SDS011;48512;48.552;9.380;2023-03-21T00:06:12;9.02;;;4.03;;
62463;SDS011;48512;48.552;9.380;2023-03-21T00:08:40;8.57;;;4.78;;
62463;SDS011;48512;48.552;9.380;2023-03-21T00:11:07;7.15;;;4.07;;
62463;SDS011;48512;48.552;9.380;2023-03-21T00:13:34;7.60;;;3.50;;
62463;SDS011;48512;48.552;9.380;2023-03-21T00:16:04;5.78;;;3.20;;
62463;SDS011;48512;48.552;9.380;2023-03-21T00:18:30;6.38;;;2.90;;
62463;SDS011;48512;48.552;9.380;2023-03-21T00:23:27;6.38;;;3.33;;
62463;SDS011;48512;48.552;9.380;2023-03-21T00:25:55;6.60;;;3.30;;
62463;SDS011;48512;48.552;9.380;2023-03-21T00:28:21;8.73;;;3.67;;
62463;SDS011;48512;48.552;9.380;2023-03-21T00:30:48;10.57;;;5.03;;
62463;SDS011;48512;48.552;9.380;2023-03-21T00:33:15;24.67;;;8.48;;
62463;SDS011;48512;48.552;9.380;2023-03-21T00:35:46;10.77;;;5.22;;
62463;SDS011;48512;48.552;9.380;2023-03-21T00:38:17;10.07;;;3.95;;
62463;SDS011;48512;48.552;9.380;2023-03-21T00:40:46;17.20;;;6.82;;
62463;SDS011;48512;48.552;9.380;2023-03-21T00:43:13;13.75;;;6.30;;
62463;SDS011;48512;48.552;9.380;2023-03-21T00:45:42;6.22;;;3.65;;
62463;SDS011;48512;48.552;9.380;2023-03-21T00:48:09;7.00;;;3.70;;
62463;SDS011;48512;48.552;9.380;2023-03-21T00:50:35;8.05;;;3.38;;
62463;SDS011;48512;48.552;9.380;2023-03-21T00:53:04;6.90;;;3.30;;
62463;SDS011;48512;48.552;9.380;2023-03-21T00:55:31;6.40;;;3.70;;
62463;SDS011;48512;48.552;9.380;2023-03-21T00:57:58;9.10;;;3.67;;
62463;SDS011;48512;48.552;9.380;2023-03-21T01:00:24;7.30;;;3.70;;
62463;SDS011;48512;48.552;9.380;2023-03-21T01:02:50;6.53;;;3.63;;
62463;SDS011;48512;48.552;9.380;2023-03-21T01:05:23;7.70;;;3.50;;
62463;SDS011;48512;48.552;9.380;2023-03-21T01:08:13;7.97;;;3.72;;
62463;SDS011;48512;48.552;9.380;2023-03-21T01:10:41;6.22;;;3.47;;
62463;SDS011;48512;48.552;9.380;2023-03-21T01:13:10;9.25;;;3.90;;
62463;SDS011;48512;48.552;9.380;2023-03-21T01:15:41;9.25;;;4.38;;
62463;SDS011;48512;48.552;9.380;2023-03-21T01:18:10;6.22;;;3.55;;
62463;SDS011;48512;48.552;9.380;2023-03-21T01:20:36;6.32;;;3.63;;
62463;SDS011;48512;48.552;9.380;2023-03-21T01:23:04;6.43;;;3.80;;
62463;SDS011;48512;48.552;9.380;2023-03-21T01:25:30;7.22;;;3.65;;
62463;SDS011;48512;48.552;9.380;2023-03-21T01:27:57;6.85;;;3.05;;
62463;SDS011;48512;48.552;9.380;2023-03-21T01:30:23;6.40;;;3.50;;
62463;SDS011;48512;48.552;9.380;2023-03-21T01:32:50;7.00;;;3.67;;
62463;SDS011;48512;48.552;9.380;2023-03-21T01:35:16;5.32;;;3.17;;
62463;SDS011;48512;48.552;9.380;2023-03-21T01:37:42;7.72;;;3.58;;
62463;SDS011;48512;48.552;9.380;2023-03-21T01:40:14;6.03;;;3.75;;
62463;SDS011;48512;48.552;9.380;2023-03-21T01:42:43;8.93;;;4.13;;
62463;SDS011;48512;48.552;9.380;2023-03-21T01:48:14;7.05;;;3.40;;
62463;SDS011;48512;48.552;9.380;2023-03-21T01:50:47;7.60;;;3.45;;
62463;SDS011;48512;48.552;9.380;2023-03-21T01:53:23;6.97;;;3.75;;
62463;SDS011;48512;48.552;9.380;2023-03-21T01:55:56;5.72;;;3.38;;
62463;SDS011;48512;48.552;9.380;2023-03-21T01:58:43;6.32;;;3.38;;
62463;SDS011;48512;48.552;9.380;2023-03-21T02:01:42;8.13;;;3.65;;
62463;SDS011;48512;48.552;9.380;2023-03-21T02:04:10;7.00;;;3.67;;
62463;SDS011;48512;48.552;9.380;2023-03-21T02:06:47;6.72;;;3.72;;
62463;SDS011;48512;48.552;9.380;2023-03-21T02:09:31;6.20;;;3.38;;
62463;SDS011;48512;48.552;9.380;2023-03-21T02:12:00;5.22;;;3.28;;
62463;SDS011;48512;48.552;9.380;2023-03-21T02:14:30;7.00;;;3.63;;
62463;SDS011;48512;48.552;9.380;2023-03-21T02:19:56;8.52;;;4.20;;
62463;SDS011;48512;48.552;9.380;2023-03-21T02:26:04;8.98;;;4.07;;
62463;SDS011;48512;48.552;9.380;2023-03-21T02:29:12;6.95;;;3.90;;
62463;SDS011;48512;48.552;9.380;2023-03-21T02:37:31;5.97;;;3.42;;
62463;SDS011;48512;48.552;9.380;2023-03-21T02:45:44;7.55;;;3.25;;
62463;SDS011;48512;48.552;9.380;2023-03-21T02:48:15;6.13;;;3.38;;
62463;SDS011;48512;48.552;9.380;2023-03-21T02:50:49;6.63;;;3.53;;
62463;SDS011;48512;48.552;9.380;2023-03-21T02:53:19;6.90;;;3.60;;
62463;SDS011;48512;48.552;9.380;2023-03-21T02:55:49;6.18;;;3.88;;
62463;SDS011;48512;48.552;9.380;2023-03-21T02:58:19;5.35;;;3.53;;
62463;SDS011;48512;48.552;9.380;2023-03-21T03:00:52;4.95;;;3.13;;
62463;SDS011;48512;48.552;9.380;2023-03-21T03:03:47;5.25;;;3.35;;
62463;SDS011;48512;48.552;9.380;2023-03-21T03:06:23;4.15;;;2.80;;
62463;SDS011;48512;48.552;9.380;2023-03-21T03:09:02;5.30;;;3.08;;
62463;SDS011;48512;48.552;9.380;2023-03-21T03:19:15;4.10;;;2.90;;
62463;SDS011;48512;48.552;9.380;2023-03-21T03:21:50;6.85;;;3.00;;
62463;SDS011;48512;48.552;9.380;2023-03-21T03:24:44;6.78;;;3.63;;
62463;SDS011;48512;48.552;9.380;2023-03-21T03:27:23;9.65;;;4.75;;
62463;SDS011;48512;48.552;9.380;2023-03-21T03:29:55;6.10;;;4.03;;
62463;SDS011;48512;48.552;9.380;2023-03-21T03:32:45;6.88;;;3.47;;
62463;SDS011;48512;48.552;9.380;2023-03-21T03:35:16;4.00;;;2.50;;
62463;SDS011;48512;48.552;9.380;2023-03-21T03:37:46;6.40;;;3.33;;
62463;SDS011;48512;48.552;9.380;2023-03-21T03:40:24;6.25;;;3.58;;
62463;SDS011;48512;48.552;9.380;2023-03-21T03:43:24;4.72;;;2.85;;
62463;SDS011;48512;48.552;9.380;2023-03-21T03:45:57;3.00;;;2.40;;
62463;SDS011;48512;48.552;9.380;2023-03-21T03:48:36;4.38;;;2.65;;
62463;SDS011;48512;48.552;9.380;2023-03-21T03:51:21;3.60;;;2.70;;
62463;SDS011;48512;48.552;9.380;2023-03-21T03:54:07;3.50;;;2.13;;
62463;SDS011;48512;48.552;9.380;2023-03-21T03:56:37;3.15;;;2.13;;
62463;SDS011;48512;48.552;9.380;2023-03-21T03:59:05;4.53;;;2.55;;
62463;SDS011;48512;48.552;9.380;2023-03-21T04:02:01;3.47;;;2.15;;
62463;SDS011;48512;48.552;9.380;2023-03-21T04:04:28;5.35;;;2.25;;
62463;SDS011;48512;48.552;9.380;2023-03-21T04:06:57;4.22;;;2.40;;
62463;SDS011;48512;48.552;9.380;2023-03-21T04:09:24;3.83;;;2.22;;
62463;SDS011;48512;48.552;9.380;2023-03-21T04:11:53;4.45;;;2.00;;
62463;SDS011;48512;48.552;9.380;2023-03-21T04:14:20;4.82;;;2.63;;
62463;SDS011;48512;48.552;9.380;2023-03-21T04:16:46;3.65;;;2.38;;
62463;SDS011;48512;48.552;9.380;2023-03-21T04:19:13;3.63;;;2.20;;
62463;SDS011;48512;48.552;9.380;2023-03-21T04:21:41;5.53;;;2.20;;
62463;SDS011;48512;48.552;9.380;2023-03-21T04:24:07;3.58;;;2.40;;
62463;SDS011;48512;48.552;9.380;2023-03-21T04:26:34;3.38;;;2.28;;
62463;SDS011;48512;48.552;9.380;2023-03-21T04:29:21;3.60;;;2.17;;
62463;SDS011;48512;48.552;9.380;2023-03-21T04:32:10;4.38;;;2.70;;
62463;SDS011;48512;48.552;9.380;2023-03-21T04:34:51;3.78;;;2.60;;
62463;SDS011;48512;48.552;9.380;2023-03-21T04:37:20;5.15;;;2.22;;
62463;SDS011;48512;48.552;9.380;2023-03-21T04:39:49;4.05;;;2.50;;
62463;SDS011;48512;48.552;9.380;2023-03-21T04:42:16;3.63;;;2.33;;
62463;SDS011;48512;48.552;9.380;2023-03-21T04:44:46;3.28;;;2.90;;
62463;SDS011;48512;48.552;9.380;2023-03-21T04:47:14;3.75;;;2.58;;
62463;SDS011;48512;48.552;9.380;2023-03-21T04:49:42;3.80;;;2.72;;
62463;SDS011;48512;48.552;9.380;2023-03-21T04:52:10;3.63;;;2.60;;
62463;SDS011;48512;48.552;9.380;2023-03-21T04:54:36;5.38;;;2.80;;
62463;SDS011;48512;48.552;9.380;2023-03-21T04:57:02;3.53;;;2.28;;
62463;SDS011;48512;48.552;9.380;2023-03-21T04:59:29;4.68;;;2.83;;
62463;SDS011;48512;48.552;9.380;2023-03-21T05:01:56;3.65;;;2.42;;
62463;SDS011;48512;48.552;9.380;2023-03-21T05:04:23;3.25;;;2.63;;
62463;SDS011;48512;48.552;9.380;2023-03-21T05:06:51;4.90;;;2.63;;
62463;SDS011;48512;48.552;9.380;2023-03-21T05:09:18;4.25;;;2.83;;
62463;SDS011;48512;48.552;9.380;2023-03-21T05:11:47;4.85;;;3.25;;
62463;SDS011;48512;48.552;9.380;2023-03-21T05:14:18;3.25;;;2.35;;
62463;SDS011;48512;48.552;9.380;2023-03-21T05:16:47;4.35;;;2.40;;
62463;SDS011;48512;48.552;9.380;2023-03-21T05:19:19;3.97;;;2.47;;
62463;SDS011;48512;48.552;9.380;2023-03-21T05:21:48;3.55;;;2.35;;
62463;SDS011;48512;48.552;9.380;2023-03-21T05:24:20;3.67;;;2.70;;
62463;SDS011;48512;48.552;9.380;2023-03-21T05:26:47;3.80;;;2.80;;
62463;SDS011;48512;48.552;9.380;2023-03-21T05:29:20;5.75;;;2.88;;
62463;SDS011;48512;48.552;9.380;2023-03-21T05:31:55;5.80;;;3.25;;
62463;SDS011;48512;48.552;9.380;2023-03-21T05:34:22;4.18;;;3.05;;
62463;SDS011;48512;48.552;9.380;2023-03-21T05:36:49;4.82;;;3.05;;
62463;SDS011;48512;48.552;9.380;2023-03-21T05:39:16;5.60;;;3.08;;
62463;SDS011;48512;48.552;9.380;2023-03-21T05:41:51;6.93;;;3.60;;
62463;SDS011;48512;48.552;9.380;2023-03-21T05:44:17;12.60;;;6.43;;
62463;SDS011;48512;48.552;9.380;2023-03-21T05:46:43;8.40;;;5.35;;
62463;SDS011;48512;48.552;9.380;2023-03-21T05:49:10;6.93;;;3.88;;
62463;SDS011;48512;48.552;9.380;2023-03-21T05:51:37;12.68;;;7.93;;
62463;SDS011;48512;48.552;9.380;2023-03-21T05:54:03;13.38;;;7.25;;
62463;SDS011;48512;48.552;9.380;2023-03-21T05:56:30;11.70;;;7.82;;
62463;SDS011;48512;48.552;9.380;2023-03-21T05:59:01;15.02;;;8.38;;
62463;SDS011;48512;48.552;9.380;2023-03-21T06:01:29;11.25;;;7.22;;
62463;SDS011;48512;48.552;9.380;2023-03-21T06:04:05;8.50;;;5.70;;
62463;SDS011;48512;48.552;9.380;2023-03-21T06:06:33;12.50;;;7.35;;
62463;SDS011;48512;48.552;9.380;2023-03-21T06:09:00;14.30;;;7.50;;
62463;SDS011;48512;48.552;9.380;2023-03-21T06:11:31;14.30;;;7.18;;
62463;SDS011;48512;48.552;9.380;2023-03-21T06:14:32;13.75;;;7.50;;
62463;SDS011;48512;48.552;9.380;2023-03-21T06:17:18;11.50;;;7.15;;
62463;SDS011;48512;48.552;9.380;2023-03-21T06:19:52;13.35;;;7.40;;
62463;SDS011;48512;48.552;9.380;2023-03-21T06:22:32;16.55;;;7.00;;
62463;SDS011;48512;48.552;9.380;2023-03-21T06:25:00;9.13;;;5.40;;
62463;SDS011;48512;48.552;9.380;2023-03-21T06:27:27;7.20;;;4.80;;
62463;SDS011;48512;48.552;9.380;2023-03-21T06:29:54;7.97;;;4.47;;
62463;SDS011;48512;48.552;9.380;2023-03-21T06:32:23;4.95;;;4.07;;
62463;SDS011;48512;48.552;9.380;2023-03-21T06:34:55;11.25;;;3.78;;
62463;SDS011;48512;48.552;9.380;2023-03-21T06:37:21;6.47;;;3.20;;
62463;SDS011;48512;48.552;9.380;2023-03-21T06:39:47;5.47;;;3.90;;
62463;SDS011;48512;48.552;9.380;2023-03-21T06:42:14;4.85;;;3.30;;
62463;SDS011;48512;48.552;9.380;2023-03-21T06:44:40;4.53;;;3.10;;
62463;SDS011;48512;48.552;9.380;2023-03-21T06:47:11;7.22;;;2.80;;
62463;SDS011;48512;48.552;9.380;2023-03-21T06:49:39;4.45;;;2.88;;
62463;SDS011;48512;48.552;9.380;2023-03-21T06:52:09;5.88;;;3.30;;
62463;SDS011;48512;48.552;9.380;2023-03-21T06:54:36;4.28;;;2.78;;
62463;SDS011;48512;48.552;9.380;2023-03-21T06:57:10;3.25;;;2.67;;
62463;SDS011;48512;48.552;9.380;2023-03-21T06:59:38;5.00;;;2.63;;
62463;SDS011;48512;48.552;9.380;2023-03-21T07:02:13;4.20;;;2.75;;
62463;SDS011;48512;48.552;9.380;2023-03-21T07:04:59;6.13;;;3.40;;
62463;SDS011;48512;48.552;9.380;2023-03-21T07:07:27;6.25;;;3.30;;
62463;SDS011;48512;48.552;9.380;2023-03-21T07:09:54;5.10;;;2.92;;
62463;SDS011;48512;48.552;9.380;2023-03-21T07:12:21;4.25;;;3.00;;
62463;SDS011;48512;48.552;9.380;2023-03-21T07:15:23;4.78;;;3.80;;
62463;SDS011;48512;48.552;9.380;2023-03-21T07:17:51;5.60;;;3.90;;
62463;SDS011;48512;48.552;9.380;2023-03-21T07:20:17;9.43;;;4.55;;
62463;SDS011;48512;48.552;9.380;2023-03-21T07:22:43;8.77;;;5.10;;
62463;SDS011;48512;48.552;9.380;2023-03-21T07:25:10;7.38;;;4.30;;
62463;SDS011;48512;48.552;9.380;2023-03-21T07:27:39;6.05;;;4.15;;
62463;SDS011;48512;48.552;9.380;2023-03-21T07:30:05;7.22;;;4.00;;
62463;SDS011;48512;48.552;9.380;2023-03-21T07:32:32;5.55;;;4.10;;
62463;SDS011;48512;48.552;9.380;2023-03-21T07:34:59;8.25;;;5.25;;
62463;SDS011;48512;48.552;9.380;2023-03-21T07:37:26;8.55;;;6.22;;
62463;SDS011;48512;48.552;9.380;2023-03-21T07:39:52;13.90;;;8.35;;
62463;SDS011;48512;48.552;9.380;2023-03-21T07:42:19;17.15;;;9.48;;
62463;SDS011;48512;48.552;9.380;2023-03-21T07:44:45;17.63;;;10.80;;
62463;SDS011;48512;48.552;9.380;2023-03-21T07:47:11;14.30;;;10.35;;
62463;SDS011;48512;48.552;9.380;2023-03-21T07:49:37;13.18;;;9.35;;
62463;SDS011;48512;48.552;9.380;2023-03-21T07:52:04;13.65;;;8.77;;
62463;SDS011;48512;48.552;9.380;2023-03-21T07:54:32;12.48;;;7.78;;
62463;SDS011;48512;48.552;9.380;2023-03-21T07:56:59;10.38;;;6.63;;
62463;SDS011;48512;48.552;9.380;2023-03-21T07:59:25;10.27;;;6.38;;
62463;SDS011;48512;48.552;9.380;2023-03-21T08:01:51;7.85;;;4.90;;
62463;SDS011;48512;48.552;9.380;2023-03-21T08:04:17;7.40;;;4.88;;
62463;SDS011;48512;48.552;9.380;2023-03-21T08:06:44;9.65;;;4.13;;
62463;SDS011;48512;48.552;9.380;2023-03-21T08:09:10;7.10;;;3.75;;
62463;SDS011;48512;48.552;9.380;2023-03-21T08:11:36;6.10;;;3.80;;
62463;SDS011;48512;48.552;9.380;2023-03-21T08:14:02;6.80;;;3.53;;
62463;SDS011;48512;48.552;9.380;2023-03-21T08:16:28;5.07;;;3.08;;
62463;SDS011;48512;48.552;9.380;2023-03-21T08:18:54;7.97;;;3.17;;
62463;SDS011;48512;48.552;9.380;2023-03-21T08:21:21;5.82;;;3.58;;
62463;SDS011;48512;48.552;9.380;2023-03-21T08:23:47;6.13;;;3.30;;
62463;SDS011;48512;48.552;9.380;2023-03-21T08:26:13;5.05;;;2.65;;
62463;SDS011;48512;48.552;9.380;2023-03-21T08:28:43;5.15;;;2.78;;
62463;SDS011;48512;48.552;9.380;2023-03-21T08:31:10;8.15;;;2.80;;
62463;SDS011;48512;48.552;9.380;2023-03-21T08:33:37;6.88;;;2.90;;
62463;SDS011;48512;48.552;9.380;2023-03-21T08:36:04;5.10;;;3.38;;
62463;SDS011;48512;48.552;9.380;2023-03-21T08:38:31;7.97;;;4.05;;
62463;SDS011;48512;48.552;9.380;2023-03-21T08:40:58;5.53;;;3.17;;
62463;SDS011;48512;48.552;9.380;2023-03-21T08:43:25;5.88;;;3.17;;
62463;SDS011;48512;48.552;9.380;2023-03-21T08:45:53;5.65;;;3.70;;
62463;SDS011;48512;48.552;9.380;2023-03-21T08:48:20;6.53;;;3.63;;
62463;SDS011;48512;48.552;9.380;2023-03-21T08:50:46;4.97;;;3.45;;
62463;SDS011;48512;48.552;9.380;2023-03-21T08:53:12;6.82;;;3.92;;
62463;SDS011;48512;48.552;9.380;2023-03-21T08:55:39;4.60;;;3.55;;
62463;SDS011;48512;48.552;9.380;2023-03-21T08:58:05;5.45;;;3.38;;
62463;SDS011;48512;48.552;9.380;2023-03-21T09:00:31;4.05;;;3.35;;
62463;SDS011;48512;48.552;9.380;2023-03-21T09:02:58;8.35;;;3.80;;
62463;SDS011;48512;48.552;9.380;2023-03-21T09:05:24;5.80;;;3.35;;
62463;SDS011;48512;48.552;9.380;2023-03-21T09:07:51;3.90;;;2.97;;
62463;SDS011;48512;48.552;9.380;2023-03-21T09:10:18;5.70;;;3.08;;
62463;SDS011;48512;48.552;9.380;2023-03-21T09:12:47;5.45;;;3.08;;
62463;SDS011;48512;48.552;9.380;2023-03-21T09:15:14;4.45;;;3.15;;
62463;SDS011;48512;48.552;9.380;2023-03-21T09:17:40;4.32;;;2.90;;
62463;SDS011;48512;48.552;9.380;2023-03-21T09:20:09;6.45;;;3.30;;
62463;SDS011;48512;48.552;9.380;2023-03-21T09:22:46;5.15;;;2.85;;
62463;SDS011;48512;48.552;9.380;2023-03-21T09:25:14;6.78;;;3.30;;
62463;SDS011;48512;48.552;9.380;2023-03-21T09:27:41;3.90;;;3.15;;
62463;SDS011;48512;48.552;9.380;2023-03-21T09:30:09;3.00;;;2.70;;
62463;SDS011;48512;48.552;9.380;2023-03-21T09:32:37;5.10;;;2.78;;
62463;SDS011;48512;48.552;9.380;2023-03-21T09:35:04;3.65;;;3.20;;
62463;SDS011;48512;48.552;9.380;2023-03-21T09:37:32;6.88;;;3.00;;
62463;SDS011;48512;48.552;9.380;2023-03-21T09:39:58;3.70;;;2.70;;
62463;SDS011;48512;48.552;9.380;2023-03-21T09:42:31;5.07;;;3.03;;
62463;SDS011;48512;48.552;9.380;2023-03-21T09:45:22;3.75;;;3.35;;
62463;SDS011;48512;48.552;9.380;2023-03-21T09:47:58;4.78;;;2.78;;
62463;SDS011;48512;48.552;9.380;2023-03-21T09:50:28;4.05;;;3.03;;
62463;SDS011;48512;48.552;9.380;2023-03-21T09:53:00;4.97;;;3.20;;
62463;SDS011;48512;48.552;9.380;2023-03-21T09:55:40;4.40;;;2.95;;
62463;SDS011;48512;48.552;9.380;2023-03-21T09:58:24;4.68;;;2.95;;
62463;SDS011;48512;48.552;9.380;2023-03-21T10:01:13;14.23;;;7.72;;
62463;SDS011;48512;48.552;9.380;2023-03-21T10:03:53;5.03;;;3.70;;
62463;SDS011;48512;48.552;9.380;2023-03-21T10:06:22;6.28;;;3.17;;
62463;SDS011;48512;48.552;9.380;2023-03-21T10:08:54;5.88;;;3.20;;
62463;SDS011;48512;48.552;9.380;2023-03-21T10:11:30;4.18;;;3.50;;
62463;SDS011;48512;48.552;9.380;2023-03-21T10:14:03;5.63;;;3.50;;
62463;SDS011;48512;48.552;9.380;2023-03-21T10:19:02;4.75;;;3.50;;
62463;SDS011;48512;48.552;9.380;2023-03-21T10:21:34;5.22;;;3.88;;
62463;SDS011;48512;48.552;9.380;2023-03-21T10:26:30;5.97;;;4.20;;
62463;SDS011;48512;48.552;9.380;2023-03-21T10:28:57;6.40;;;4.35;;
62463;SDS011;48512;48.552;9.380;2023-03-21T10:31:26;7.85;;;4.05;;
62463;SDS011;48512;48.552;9.380;2023-03-21T10:33:55;8.48;;;4.32;;
62463;SDS011;48512;48.552;9.380;2023-03-21T10:36:24;5.15;;;3.80;;
62463;SDS011;48512;48.552;9.380;2023-03-21T10:38:53;4.95;;;3.60;;
62463;SDS011;48512;48.552;9.380;2023-03-21T10:41:25;5.38;;;3.70;;
62463;SDS011;48512;48.552;9.380;2023-03-21T10:44:07;5.65;;;3.45;;
62463;SDS011;48512;48.552;9.380;2023-03-21T10:46:33;5.28;;;3.20;;
62463;SDS011;48512;48.552;9.380;2023-03-21T10:49:00;4.72;;;3.60;;
62463;SDS011;48512;48.552;9.380;2023-03-21T10:51:29;5.63;;;4.10;;
62463;SDS011;48512;48.552;9.380;2023-03-21T10:53:58;4.57;;;3.47;;
62463;SDS011;48512;48.552;9.380;2023-03-21T10:56:30;5.18;;;3.63;;
62463;SDS011;48512;48.552;9.380;2023-03-21T10:59:01;5.55;;;3.80;;
62463;SDS011;48512;48.552;9.380;2023-03-21T11:01:37;5.65;;;3.60;;
62463;SDS011;48512;48.552;9.380;2023-03-21T11:04:12;7.90;;;4.00;;
62463;SDS011;48512;48.552;9.380;2023-03-21T11:06:41;4.68;;;3.72;;
62463;SDS011;48512;48.552;9.380;2023-03-21T11:09:14;9.68;;;3.55;;
62463;SDS011;48512;48.552;9.380;2023-03-21T11:11:49;6.78;;;3.53;;
62463;SDS011;48512;48.552;9.380;2023-03-21T11:14:26;5.97;;;3.88;;
62463;SDS011;48512;48.552;9.380;2023-03-21T11:17:27;8.57;;;4.20;;
62463;SDS011;48512;48.552;9.380;2023-03-21T11:19:58;5.88;;;4.18;;
62463;SDS011;48512;48.552;9.380;2023-03-21T11:22:28;7.53;;;4.10;;
62463;SDS011;48512;48.552;9.380;2023-03-21T11:25:03;5.55;;;3.50;;
62463;SDS011;48512;48.552;9.380;2023-03-21T11:27:31;4.10;;;3.35;;
62463;SDS011;48512;48.552;9.380;2023-03-21T11:30:00;8.38;;;4.20;;
62463;SDS011;48512;48.552;9.380;2023-03-21T11:32:34;5.53;;;3.50;;
62463;SDS011;48512;48.552;9.380;2023-03-21T11:35:03;7.13;;;3.72;;
62463;SDS011;48512;48.552;9.380;2023-03-21T11:37:32;4.35;;;3.33;;
62463;SDS011;48512;48.552;9.380;2023-03-21T11:45:23;6.57;;;3.63;;
62463;SDS011;48512;48.552;9.380;2023-03-21T11:47:52;6.32;;;3.42;;
62463;SDS011;48512;48.552;9.380;2023-03-21T11:50:28;5.05;;;3.45;;
62463;SDS011;48512;48.552;9.380;2023-03-21T11:58:29;6.45;;;4.38;;
62463;SDS011;48512;48.552;9.380;2023-03-21T12:01:00;8.43;;;4.40;;
62463;SDS011;48512;48.552;9.380;2023-03-21T12:06:04;8.00;;;4.28;;
62463;SDS011;48512;48.552;9.380;2023-03-21T12:20:09;5.60;;;4.20;;
62463;SDS011;48512;48.552;9.380;2023-03-21T12:22:55;7.07;;;3.88;;
62463;SDS011;48512;48.552;9.380;2023-03-21T12:26:09;7.43;;;4.30;;
62463;SDS011;48512;48.552;9.380;2023-03-21T12:28:38;28.40;;;7.45;;
62463;SDS011;48512;48.552;9.380;2023-03-21T12:39:25;8.57;;;4.50;;
62463;SDS011;48512;48.552;9.380;2023-03-21T12:44:39;6.93;;;4.28;;
62463;SDS011;48512;48.552;9.380;2023-03-21T12:47:10;8.40;;;4.35;;
62463;SDS011;48512;48.552;9.380;2023-03-21T12:49:48;6.22;;;4.10;;
62463;SDS011;48512;48.552;9.380;2023-03-21T12:52:20;11.40;;;3.30;;
62463;SDS011;48512;48.552;9.380;2023-03-21T12:54:58;8.73;;;3.78;;
62463;SDS011;48512;48.552;9.380;2023-03-21T12:57:40;10.02;;;3.45;;
62463;SDS011;48512;48.552;9.380;2023-03-21T13:00:31;13.15;;;3.95;;
62463;SDS011;48512;48.552;9.380;2023-03-21T13:03:11;9.23;;;3.63;;
62463;SDS011;48512;48.552;9.380;2023-03-21T13:05:51;12.02;;;5.25;;
62463;SDS011;48512;48.552;9.380;2023-03-21T13:08:28;11.70;;;5.03;;
62463;SDS011;48512;48.552;9.380;2023-03-21T13:10:55;8.60;;;4.82;;
62463;SDS011;48512;48.552;9.380;2023-03-21T13:18:43;8.30;;;4.75;;
62463;SDS011;48512;48.552;9.380;2023-03-21T13:22:05;7.78;;;4.32;;
62463;SDS011;48512;48.552;9.380;2023-03-21T13:24:02;10.77;;;5.93;;
62463;SDS011;48512;48.552;9.380;2023-03-21T13:26:44;9.65;;;5.57;;
62463;SDS011;48512;48.552;9.380;2023-03-21T13:34:54;14.57;;;4.60;;
62463;SDS011;48512;48.552;9.380;2023-03-21T13:37:24;8.68;;;4.55;;
62463;SDS011;48512;48.552;9.380;2023-03-21T13:39:54;7.63;;;4.22;;
62463;SDS011;48512;48.552;9.380;2023-03-21T13:42:28;9.48;;;4.32;;
62463;SDS011;48512;48.552;9.380;2023-03-21T13:44:59;7.28;;;4.20;;
62463;SDS011;48512;48.552;9.380;2023-03-21T13:52:41;8.25;;;3.58;;
62463;SDS011;48512;48.552;9.380;2023-03-21T13:55:14;5.90;;;3.83;;
62463;SDS011;48512;48.552;9.380;2023-03-21T13:57:47;6.50;;;3.78;;
62463;SDS011;48512;48.552;9.380;2023-03-21T14:03:05;9.18;;;5.32;;
62463;SDS011;48512;48.552;9.380;2023-03-21T14:05:32;9.88;;;5.90;;
62463;SDS011;48512;48.552;9.380;2023-03-21T14:08:01;12.82;;;6.43;;
62463;SDS011;48512;48.552;9.380;2023-03-21T14:10:34;9.80;;;6.20;;
62463;SDS011;48512;48.552;9.380;2023-03-21T14:13:07;13.18;;;5.97;;
62463;SDS011;48512;48.552;9.380;2023-03-21T14:15:39;8.27;;;5.40;;
62463;SDS011;48512;48.552;9.380;2023-03-21T14:18:15;11.10;;;4.93;;
62463;SDS011;48512;48.552;9.380;2023-03-21T14:20:43;8.20;;;5.28;;
62463;SDS011;48512;48.552;9.380;2023-03-21T14:23:13;7.97;;;5.32;;
62463;SDS011;48512;48.552;9.380;2023-03-21T14:25:40;10.18;;;5.38;;
62463;SDS011;48512;48.552;9.380;2023-03-21T14:30:42;9.02;;;5.90;;
62463;SDS011;48512;48.552;9.380;2023-03-21T14:35:45;10.63;;;6.57;;
62463;SDS011;48512;48.552;9.380;2023-03-21T14:38:19;11.27;;;5.70;;
62463;SDS011;48512;48.552;9.380;2023-03-21T14:40:51;9.32;;;6.10;;
62463;SDS011;48512;48.552;9.380;2023-03-21T14:43:20;16.95;;;8.98;;
62463;SDS011;48512;48.552;9.380;2023-03-21T14:45:51;12.45;;;6.35;;
62463;SDS011;48512;48.552;9.380;2023-03-21T14:48:21;19.02;;;8.88;;
62463;SDS011;48512;48.552;9.380;2023-03-21T14:50:55;26.05;;;9.98;;
62463;SDS011;48512;48.552;9.380;2023-03-21T14:53:30;23.33;;;8.63;;
62463;SDS011;48512;48.552;9.380;2023-03-21T14:58:33;16.92;;;7.10;;
62463;SDS011;48512;48.552;9.380;2023-03-21T15:01:04;20.17;;;7.38;;
62463;SDS011;48512;48.552;9.380;2023-03-21T15:03:32;14.77;;;6.40;;
62463;SDS011;48512;48.552;9.380;2023-03-21T15:05:59;14.10;;;6.13;;
62463;SDS011;48512;48.552;9.380;2023-03-21T15:08:27;12.27;;;6.35;;
62463;SDS011;48512;48.552;9.380;2023-03-21T15:13:21;9.07;;;5.70;;
62463;SDS011;48512;48.552;9.380;2023-03-21T15:15:51;8.50;;;5.25;;
62463;SDS011;48512;48.552;9.380;2023-03-21T15:18:24;7.53;;;5.10;;
62463;SDS011;48512;48.552;9.380;2023-03-21T15:20:55;11.10;;;5.72;;
62463;SDS011;48512;48.552;9.380;2023-03-21T15:23:29;9.10;;;5.78;;
62463;SDS011;48512;48.552;9.380;2023-03-21T15:25:57;12.85;;;5.88;;
62463;SDS011;48512;48.552;9.380;2023-03-21T15:28:27;11.40;;;5.13;;
62463;SDS011;48512;48.552;9.380;2023-03-21T15:30:53;8.60;;;5.07;;
62463;SDS011;48512;48.552;9.380;2023-03-21T15:33:22;18.13;;;10.35;;
62463;SDS011;48512;48.552;9.380;2023-03-21T15:35:51;15.65;;;9.13;;
62463;SDS011;48512;48.552;9.380;2023-03-21T15:38:35;9.95;;;5.32;;
62463;SDS011;48512;48.552;9.380;2023-03-21T15:41:13;9.52;;;4.68;;
62463;SDS011;48512;48.552;9.380;2023-03-21T15:51:37;7.40;;;3.42;;
62463;SDS011;48512;48.552;9.380;2023-03-21T15:54:13;6.13;;;3.50;;
62463;SDS011;48512;48.552;9.380;2023-03-21T15:56:42;4.75;;;3.20;;
62463;SDS011;48512;48.552;9.380;2023-03-21T15:59:11;9.68;;;3.63;;
62463;SDS011;48512;48.552;9.380;2023-03-21T16:01:44;10.60;;;5.03;;
62463;SDS011;48512;48.552;9.380;2023-03-21T16:04:12;10.75;;;5.05;;
62463;SDS011;48512;48.552;9.380;2023-03-21T16:06:49;18.80;;;8.95;;
62463;SDS011;48512;48.552;9.380;2023-03-21T16:09:27;11.15;;;6.32;;
62463;SDS011;48512;48.552;9.380;2023-03-21T16:12:05;13.40;;;6.38;;
62463;SDS011;48512;48.552;9.380;2023-03-21T16:14:37;10.18;;;4.90;;
62463;SDS011;48512;48.552;9.380;2023-03-21T16:17:21;8.55;;;4.13;;
62463;SDS011;48512;48.552;9.380;2023-03-21T16:19:55;8.10;;;3.22;;
62463;SDS011;48512;48.552;9.380;2023-03-21T16:22:21;7.72;;;3.30;;
62463;SDS011;48512;48.552;9.380;2023-03-21T16:24:47;9.85;;;5.78;;
62463;SDS011;48512;48.552;9.380;2023-03-21T16:27:14;11.95;;;4.80;;
62463;SDS011;48512;48.552;9.380;2023-03-21T16:29:43;12.85;;;5.40;;
62463;SDS011;48512;48.552;9.380;2023-03-21T16:32:11;8.52;;;5.88;;
62463;SDS011;48512;48.552;9.380;2023-03-21T16:34:40;9.30;;;4.80;;
62463;SDS011;48512;48.552;9.380;2023-03-21T16:37:08;6.43;;;3.00;;
62463;SDS011;48512;48.552;9.380;2023-03-21T16:39:40;5.45;;;3.58;;
62463;SDS011;48512;48.552;9.380;2023-03-21T16:42:08;7.90;;;3.22;;
62463;SDS011;48512;48.552;9.380;2023-03-21T16:44:36;8.05;;;3.33;;
62463;SDS011;48512;48.552;9.380;2023-03-21T16:47:14;8.98;;;4.20;;
62463;SDS011;48512;48.552;9.380;2023-03-21T16:49:42;10.23;;;4.88;;
62463;SDS011;48512;48.552;9.380;2023-03-21T16:52:09;7.18;;;3.70;;
62463;SDS011;48512;48.552;9.380;2023-03-21T16:54:37;5.97;;;4.05;;
62463;SDS011;48512;48.552;9.380;2023-03-21T16:57:05;7.65;;;3.78;;
62463;SDS011;48512;48.552;9.380;2023-03-21T16:59:33;7.28;;;4.18;;